Terminal Aerodrome Forecast
Issued by NWS Atlanta, GA

Home | Current Version | Previous Version | Text Only | Print | Product List | Glossary On
Versions: 1 2 3 4 5 6 7 8 9 10 11 12 13 14 15 16 17 18 19 20 21 22 23 24 25 26 27 28 29 30
000
FTUS42 KFFC 300523
TAFAHN
TAF
KAHN 300523Z 3006/3106 21006KT P6SM BKN050
     FM300800 30015G25KT P6SM OVC025
     FM301100 32012KT P6SM BKN035
     FM301300 32014KT P6SM SCT040
     FM301500 32014G24KT P6SM SCT150
     FM310000 31004KT P6SM SKC=

USA.gov is the U.S. government's official web portal to all federal, state and local government web resources and services.